createdAt,value
2022-09-03T00:02:08.438Z,96046.22
2022-09-03T00:04:48.017Z,96050.19
2022-09-03T00:07:21.254Z,96038.13
2022-09-03T00:09:55.611Z,96038.88
2022-09-03T00:12:27.389Z,96040.00
2022-09-03T00:15:01.834Z,96043.72
2022-09-03T00:17:33.454Z,96037.94
2022-09-03T00:20:06.367Z,96031.63
2022-09-03T00:22:39.269Z,96045.50
2022-09-03T00:25:13.004Z,96043.13
2022-09-03T00:27:42.787Z,96054.22
2022-09-03T00:30:14.635Z,96052.31
2022-09-03T00:32:47.847Z,96042.91
2022-09-03T00:35:20.835Z,96038.63
2022-09-03T00:37:49.964Z,96036.81
2022-09-03T00:40:33.468Z,96039.50
2022-09-03T00:43:11.029Z,96044.28
2022-09-03T00:45:45.499Z,96042.00
2022-09-03T00:48:28.364Z,96037.41
2022-09-03T00:51:11.844Z,96053.28
2022-09-03T00:53:51.351Z,96049.16
2022-09-03T00:56:28.347Z,96050.91
2022-09-03T00:59:09.325Z,96058.31
2022-09-03T01:01:47.831Z,96061.59
2022-09-03T01:04:29.192Z,96066.50
2022-09-03T01:07:06.059Z,96057.84
2022-09-03T01:09:48.981Z,96061.75
2022-09-03T01:12:25.344Z,96055.88
2022-09-03T01:15:05.269Z,96061.38
2022-09-03T01:17:45.575Z,96066.44
2022-09-03T01:20:24.090Z,96062.03
2022-09-03T01:23:29.086Z,96054.97
2022-09-03T01:26:12.116Z,96058.72
2022-09-03T01:28:55.294Z,96047.31
2022-09-03T01:31:36.139Z,96048.09
2022-09-03T01:34:14.128Z,96042.97
2022-09-03T01:36:50.745Z,96053.63
2022-09-03T01:39:27.664Z,96043.41
2022-09-03T01:42:20.965Z,96049.13
2022-09-03T01:45:12.037Z,96048.59
2022-09-03T01:47:51.860Z,96044.09
2022-09-03T01:50:34.766Z,96056.22
2022-09-03T01:53:11.727Z,96049.53
2022-09-03T01:55:56.030Z,96049.97
2022-09-03T01:58:31.354Z,96039.91
2022-09-03T02:01:07.206Z,96054.03
2022-09-03T02:03:40.788Z,96048.50
2022-09-03T02:06:09.033Z,96048.38
2022-09-03T02:08:36.521Z,96045.44
2022-09-03T02:11:07.991Z,96044.56
2022-09-03T02:13:39.651Z,96041.81
2022-09-03T02:16:14.009Z,96048.72
2022-09-03T02:18:46.885Z,96045.44
2022-09-03T02:21:17.733Z,96047.81
2022-09-03T02:23:45.309Z,96053.81
2022-09-03T02:26:17.521Z,96045.19
2022-09-03T02:28:45.579Z,96046.13
2022-09-03T02:31:14.720Z,96044.91
2022-09-03T02:33:45.018Z,96040.25
2022-09-03T02:36:15.356Z,96038.25
2022-09-03T02:38:44.311Z,96047.13
2022-09-03T02:41:15.003Z,96051.56
2022-09-03T02:43:47.167Z,96047.41
2022-09-03T02:46:21.845Z,96055.50
2022-09-03T02:48:49.553Z,96052.66
2022-09-03T02:51:17.052Z,96043.03
2022-09-03T02:53:45.015Z,96034.34
2022-09-03T02:56:12.951Z,96038.75
2022-09-03T02:58:40.893Z,96035.38
2022-09-03T03:01:08.466Z,96034.63
2022-09-03T03:03:37.325Z,96033.72
2022-09-03T03:06:07.215Z,96036.84
2022-09-03T03:08:35.167Z,96035.81
2022-09-03T03:11:02.956Z,96037.59
2022-09-03T03:13:31.886Z,96035.06
2022-09-03T03:16:00.748Z,96045.56
2022-09-03T03:18:28.929Z,96048.31
2022-09-03T03:20:57.915Z,96050.34
2022-09-03T03:23:25.416Z,96048.75
2022-09-03T03:25:52.912Z,96049.53
2022-09-03T03:28:20.601Z,96046.38
2022-09-03T03:30:48.996Z,96044.31
2022-09-03T03:33:16.626Z,96046.22
2022-09-03T03:35:44.115Z,96039.88
2022-09-03T03:38:13.112Z,96039.25
2022-09-03T03:40:40.643Z,96041.75
2022-09-03T03:43:08.181Z,96038.75
2022-09-03T03:45:35.810Z,96044.38
2022-09-03T03:48:03.587Z,96040.97
2022-09-03T03:50:31.082Z,96036.38
2022-09-03T03:53:00.829Z,96037.84
2022-09-03T03:55:34.999Z,96028.16
2022-09-03T03:58:02.901Z,96039.13
2022-09-03T04:00:30.373Z,96036.47
2022-09-03T04:02:57.997Z,96042.94
2022-09-03T04:05:25.532Z,96045.38
2022-09-03T04:07:54.378Z,96043.09
2022-09-03T04:10:21.936Z,96037.94
2022-09-03T04:12:50.736Z,96035.91
2022-09-03T04:15:18.309Z,96037.34
2022-09-03T04:17:45.815Z,96039.50
2022-09-03T04:20:13.299Z,96043.38
2022-09-03T04:22:40.786Z,96050.72
2022-09-03T04:25:09.130Z,96054.88
2022-09-03T04:27:36.617Z,96049.09
2022-09-03T04:30:06.327Z,96043.44
2022-09-03T04:32:52.489Z,96036.88
2022-09-03T04:35:20.873Z,96039.13
2022-09-03T04:37:48.430Z,96037.19
2022-09-03T04:40:15.955Z,96030.56
2022-09-03T04:42:43.486Z,96041.25
2022-09-03T04:45:18.501Z,96041.72
2022-09-03T04:47:47.383Z,96045.25
2022-09-03T04:50:14.930Z,96047.69
2022-09-03T04:52:42.408Z,96047.72
2022-09-03T04:55:12.055Z,96047.84
2022-09-03T04:57:39.538Z,96052.47
2022-09-03T05:00:11.191Z,96051.34
2022-09-03T05:02:40.114Z,96054.84
2022-09-03T05:05:08.243Z,96060.84
2022-09-03T05:07:38.670Z,96049.72
2022-09-03T05:10:08.202Z,96049.22
2022-09-03T05:12:36.537Z,96055.06
2022-09-03T05:15:05.416Z,96046.06
2022-09-03T05:17:37.217Z,96050.53
2022-09-03T05:20:08.441Z,96050.56
2022-09-03T05:22:36.064Z,96046.38
2022-09-03T05:25:03.592Z,96050.56
2022-09-03T05:27:32.164Z,96056.94
2022-09-03T05:29:59.957Z,96050.03
2022-09-03T05:32:28.669Z,96062.31
2022-09-03T05:34:56.624Z,96055.38
2022-09-03T05:37:25.908Z,96055.75
2022-09-03T05:39:53.902Z,96056.22
2022-09-03T05:42:21.936Z,96058.00
2022-09-03T05:44:49.956Z,96059.03
2022-09-03T05:47:17.503Z,96052.63
2022-09-03T05:49:44.984Z,96056.94
2022-09-03T05:52:12.481Z,96065.22
2022-09-03T05:54:41.316Z,96059.72
2022-09-03T05:57:08.828Z,96057.56
2022-09-03T05:59:36.319Z,96062.06
2022-09-03T06:02:03.979Z,96061.75
2022-09-03T06:04:31.612Z,96060.50
2022-09-03T06:07:00.846Z,96060.69
2022-09-03T06:09:28.327Z,96050.00
2022-09-03T06:11:57.496Z,96053.50
2022-09-03T06:14:27.173Z,96063.81
2022-09-03T06:16:55.764Z,96069.06
2022-09-03T06:19:23.656Z,96060.94
2022-09-03T06:21:51.213Z,96068.28
2022-09-03T06:24:23.182Z,96064.84
2022-09-03T06:26:54.090Z,96059.44
2022-09-03T06:29:22.923Z,96059.44
2022-09-03T06:31:50.798Z,96059.84
2022-09-03T06:34:19.336Z,96070.19
2022-09-03T06:36:46.894Z,96073.59
2022-09-03T06:39:14.386Z,96074.25
2022-09-03T06:41:41.884Z,96065.72
2022-09-03T06:44:12.303Z,96068.78
2022-09-03T06:46:43.185Z,96061.16
2022-09-03T06:49:11.397Z,96076.81
2022-09-03T06:51:39.601Z,96083.00
2022-09-03T06:54:08.686Z,96081.38
2022-09-03T06:56:40.542Z,96090.72
2022-09-03T06:59:09.802Z,96081.41
2022-09-03T07:01:40.778Z,96070.16
2022-09-03T07:04:16.114Z,96069.72
2022-09-03T07:06:44.199Z,96058.31
2022-09-03T07:09:13.171Z,96062.69
2022-09-03T07:11:46.953Z,96058.06
2022-09-03T07:14:15.850Z,96064.94
2022-09-03T07:16:43.785Z,96068.00
2022-09-03T07:19:13.416Z,96066.06
2022-09-03T07:21:48.180Z,96071.34
2022-09-03T07:24:17.997Z,96071.06
2022-09-03T07:26:46.529Z,96070.09
2022-09-03T07:29:15.753Z,96068.72
2022-09-03T07:31:44.355Z,96066.41
2022-09-03T07:34:16.397Z,96076.38
2022-09-03T07:36:47.001Z,96063.78
2022-09-03T07:39:18.143Z,96069.94
2022-09-03T07:41:46.661Z,96067.59
2022-09-03T07:44:16.132Z,96068.75
2022-09-03T07:46:46.041Z,96071.69
2022-09-03T07:49:14.968Z,96070.09
2022-09-03T07:51:42.557Z,96066.72
2022-09-03T07:54:11.919Z,96070.78
2022-09-03T07:56:40.666Z,96082.38
2022-09-03T07:59:08.692Z,96086.66
2022-09-03T08:01:41.230Z,96081.63
2022-09-03T08:04:10.883Z,96091.63
2022-09-03T08:06:40.325Z,96089.53
2022-09-03T08:09:11.303Z,96099.94
2022-09-03T08:11:40.663Z,96093.84
2022-09-03T08:14:10.336Z,96100.69
2022-09-03T08:16:39.847Z,96088.13
2022-09-03T08:19:07.599Z,96082.28
2022-09-03T08:21:35.727Z,96087.44
2022-09-03T08:24:05.663Z,96089.13
2022-09-03T08:26:35.541Z,96086.16
2022-09-03T08:29:04.465Z,96084.56
2022-09-03T08:31:33.649Z,96097.00
2022-09-03T08:34:06.671Z,96096.41
2022-09-03T08:36:39.030Z,96103.47
2022-09-03T08:39:10.673Z,96094.72
2022-09-03T08:42:02.831Z,96089.91
2022-09-03T08:44:35.752Z,96087.97
2022-09-03T08:47:10.219Z,96093.28
2022-09-03T08:49:44.695Z,96084.94
2022-09-03T08:52:26.111Z,96088.16
2022-09-03T08:55:01.424Z,96096.31
2022-09-03T08:57:33.321Z,96090.00
2022-09-03T09:00:00.940Z,96085.66
2022-09-03T09:02:42.689Z,96090.72
2022-09-03T09:05:14.317Z,96093.44
2022-09-03T09:07:47.740Z,96079.97
2022-09-03T09:10:23.689Z,96079.97
2022-09-03T09:13:06.073Z,96080.22
2022-09-03T09:15:41.754Z,96074.78
2022-09-03T09:18:19.915Z,96078.63
2022-09-03T09:20:50.917Z,96072.59
2022-09-03T09:23:25.920Z,96073.13
2022-09-03T09:25:58.520Z,96073.22
2022-09-03T09:28:30.961Z,96065.28
2022-09-03T09:30:58.862Z,96070.50
2022-09-03T09:33:26.457Z,96062.03
2022-09-03T09:35:53.932Z,96073.03
2022-09-03T09:38:29.920Z,96060.84
2022-09-03T09:41:09.907Z,96048.78
2022-09-03T09:43:37.872Z,96050.50
2022-09-03T09:46:10.381Z,96055.31
2022-09-03T09:48:46.350Z,96050.94
2022-09-03T09:51:18.901Z,96051.69
2022-09-03T09:53:46.425Z,96041.66
2022-09-03T09:56:23.946Z,96025.91
2022-09-03T09:58:52.641Z,96032.56
2022-09-03T10:01:25.741Z,96031.03
2022-09-03T10:03:55.780Z,96037.19
2022-09-03T10:06:43.369Z,96036.59
2022-09-03T10:09:13.511Z,96030.34
2022-09-03T10:11:46.919Z,96033.91
2022-09-03T10:14:26.138Z,96027.66
2022-09-03T10:17:01.744Z,96030.34
2022-09-03T10:19:37.596Z,96037.16
2022-09-03T10:22:10.950Z,96026.28
2022-09-03T10:24:52.115Z,96034.53
2022-09-03T10:27:22.121Z,96027.28
2022-09-03T10:29:50.179Z,96025.88
2022-09-03T10:32:37.796Z,96020.81
2022-09-03T10:35:20.388Z,96034.59
2022-09-03T10:37:54.336Z,96039.06
2022-09-03T10:40:31.668Z,96045.28
2022-09-03T10:43:17.711Z,96036.06
2022-09-03T10:45:54.629Z,96031.34
2022-09-03T10:48:35.340Z,96038.31
2022-09-03T10:51:06.599Z,96034.25
2022-09-03T10:53:49.910Z,96028.88
2022-09-03T10:56:22.479Z,96034.72
2022-09-03T10:59:04.596Z,96033.59
2022-09-03T11:01:40.300Z,96037.19
2022-09-03T11:04:26.531Z,96022.72
2022-09-03T11:06:58.904Z,96030.59
2022-09-03T11:09:32.570Z,96020.94
2022-09-03T11:12:05.317Z,96018.63
2022-09-03T11:14:39.169Z,96021.91
2022-09-03T11:17:11.608Z,96018.66
2022-09-03T11:19:48.203Z,96017.53
2022-09-03T11:22:20.977Z,96008.63
2022-09-03T11:24:55.271Z,96009.47
2022-09-03T11:27:32.490Z,96010.69
2022-09-03T11:30:05.936Z,96008.28
2022-09-03T11:32:46.656Z,96013.25
2022-09-03T11:35:16.659Z,96008.72
2022-09-03T11:37:55.000Z,96006.13
2022-09-03T11:40:33.109Z,96005.03
2022-09-03T11:43:08.701Z,96009.34
2022-09-03T11:45:39.184Z,96007.81
2022-09-03T11:48:33.087Z,96004.31
2022-09-03T11:51:00.551Z,96009.84
2022-09-03T11:53:35.494Z,96013.19
2022-09-03T11:56:19.325Z,96010.44
2022-09-03T11:58:48.404Z,96010.41
2022-09-03T12:01:19.185Z,96014.03
2022-09-03T12:03:50.239Z,96011.06
2022-09-03T12:06:43.311Z,96024.66
2022-09-03T12:09:38.446Z,96019.72
2022-09-03T12:12:23.843Z,96008.03
2022-09-03T12:15:00.000Z,96001.63
2022-09-03T12:17:35.982Z,95990.06
2022-09-03T12:20:04.357Z,95990.28
2022-09-03T12:22:38.646Z,95993.56
2022-09-03T12:25:12.144Z,95987.66
2022-09-03T12:27:41.515Z,95994.72
2022-09-03T12:30:18.081Z,95993.56
2022-09-03T12:32:47.421Z,95995.91
2022-09-03T12:38:08.410Z,95992.66
2022-09-03T12:41:19.173Z,95996.75
2022-09-03T12:43:49.792Z,95985.00
2022-09-03T12:46:17.635Z,95982.59
2022-09-03T12:51:52.435Z,95988.41
2022-09-03T12:54:23.159Z,95982.66
2022-09-03T12:56:57.403Z,95994.59
2022-09-03T12:59:28.276Z,95984.44
2022-09-03T13:01:59.390Z,95982.78
2022-09-03T13:04:32.834Z,95976.38
2022-09-03T13:07:04.603Z,95964.28
2022-09-03T13:09:36.844Z,95972.09
2022-09-03T13:12:05.802Z,95971.66
2022-09-03T13:14:44.681Z,95973.63
2022-09-03T13:17:38.261Z,95973.09
2022-09-03T13:20:26.731Z,95982.91
2022-09-03T13:23:11.183Z,95979.91
2022-09-03T13:25:49.429Z,95995.97
2022-09-03T13:28:28.678Z,95996.41
2022-09-03T13:31:01.594Z,95992.16
2022-09-03T13:33:38.933Z,95989.38
2022-09-03T13:36:15.778Z,95999.81
2022-09-03T13:38:50.635Z,95997.00
2022-09-03T13:41:34.648Z,96008.97
2022-09-03T13:44:09.846Z,96002.59
2022-09-03T13:46:44.332Z,96001.44
2022-09-03T13:49:40.511Z,96011.53
2022-09-03T13:52:22.685Z,95998.75
2022-09-03T13:54:55.681Z,96001.16
2022-09-03T13:57:33.712Z,95992.75
2022-09-03T14:00:07.769Z,95996.03
2022-09-03T14:02:49.747Z,95988.00
2022-09-03T14:05:32.247Z,95998.31
2022-09-03T14:08:10.118Z,96003.53
2022-09-03T14:10:59.175Z,95991.53
2022-09-03T14:13:38.051Z,96000.28
2022-09-03T14:16:09.574Z,95995.97
2022-09-03T14:18:47.266Z,96000.00
2022-09-03T14:21:19.583Z,96006.31
2022-09-03T14:23:52.367Z,96017.38
2022-09-03T14:26:38.690Z,96010.19
2022-09-03T14:29:15.645Z,96021.91
2022-09-03T14:31:58.930Z,96009.66
2022-09-03T14:34:39.113Z,96013.25
2022-09-03T14:37:16.139Z,96009.59
2022-09-03T14:39:51.840Z,96007.16
2022-09-03T14:42:37.787Z,96011.84
2022-09-03T14:45:24.620Z,96006.66
2022-09-03T14:48:09.687Z,96011.66
2022-09-03T14:51:06.247Z,96016.38
2022-09-03T14:53:58.377Z,96025.00
2022-09-03T14:56:41.822Z,96008.53
2022-09-03T14:59:43.635Z,96010.44
2022-09-03T15:02:31.011Z,96008.75
2022-09-03T15:05:12.245Z,96001.47
2022-09-03T15:07:47.731Z,95998.84
2022-09-03T15:10:22.867Z,95994.28
2022-09-03T15:12:54.261Z,95996.31
2022-09-03T15:15:26.343Z,95988.41
2022-09-03T15:18:10.861Z,95994.88
2022-09-03T15:20:50.656Z,95987.03
2022-09-03T15:23:47.100Z,95983.56
2022-09-03T15:26:41.551Z,95979.28
2022-09-03T15:29:30.124Z,95969.03
2022-09-03T15:32:07.894Z,95967.88
2022-09-03T15:34:51.711Z,95967.56
2022-09-03T15:37:24.672Z,95956.66
2022-09-03T15:40:02.483Z,95951.09
2022-09-03T15:42:31.313Z,95953.88
2022-09-03T15:45:07.398Z,95963.03
2022-09-03T15:47:51.567Z,95965.19
2022-09-03T15:50:30.527Z,95967.00
2022-09-03T15:53:04.862Z,95962.16
2022-09-03T15:55:37.018Z,95966.78
2022-09-03T15:58:14.328Z,95962.03
2022-09-03T16:01:00.122Z,95960.56
2022-09-03T16:03:46.720Z,95968.91
2022-09-03T16:06:26.140Z,95970.16
2022-09-03T16:08:58.475Z,95964.56
2022-09-03T16:11:37.094Z,95969.50
2022-09-03T16:14:12.171Z,95985.63
2022-09-03T16:16:54.993Z,95979.56
2022-09-03T16:19:28.011Z,95976.41
2022-09-03T16:22:00.801Z,95980.66
2022-09-03T16:24:38.453Z,95985.81
2022-09-03T16:27:12.179Z,96001.88
2022-09-03T16:29:40.511Z,95994.84
2022-09-03T16:32:27.027Z,95995.38
2022-09-03T16:35:05.208Z,95992.81
2022-09-03T16:37:39.400Z,95992.41
2022-09-03T16:40:17.228Z,95992.69
2022-09-03T16:42:51.715Z,95991.69
2022-09-03T16:45:30.810Z,95997.53
2022-09-03T16:48:17.354Z,96001.09
2022-09-03T16:51:04.360Z,95996.84
2022-09-03T16:53:50.465Z,96006.75
2022-09-03T16:56:36.548Z,96004.00
2022-09-03T16:59:17.849Z,96001.63
2022-09-03T17:02:01.876Z,95993.44
2022-09-03T17:04:54.700Z,96002.69
2022-09-03T17:07:37.605Z,96001.88
2022-09-03T17:10:14.535Z,95999.34
2022-09-03T17:12:50.812Z,96003.28
2022-09-03T17:15:31.420Z,96003.69
2022-09-03T17:18:17.467Z,96003.31
2022-09-03T17:21:01.823Z,95998.97
2022-09-03T17:23:49.820Z,96004.25
2022-09-03T17:26:29.240Z,96002.53
2022-09-03T17:29:12.829Z,96006.25
2022-09-03T17:31:51.383Z,96014.38
2022-09-03T17:34:39.883Z,96012.97
2022-09-03T17:37:23.123Z,96008.75
2022-09-03T17:40:08.911Z,96019.97
2022-09-03T17:42:49.840Z,96025.19
2022-09-03T17:45:28.165Z,96022.34
2022-09-03T17:48:14.850Z,96017.38
2022-09-03T17:50:51.151Z,96018.75
2022-09-03T17:53:26.046Z,96025.06
2022-09-03T17:55:58.679Z,96030.16
2022-09-03T17:58:32.619Z,96036.50
2022-09-03T18:01:07.895Z,96035.25
2022-09-03T18:03:44.966Z,96045.19
2022-09-03T18:06:24.001Z,96048.53
2022-09-03T18:08:58.684Z,96053.56
2022-09-03T18:11:34.062Z,96047.22
2022-09-03T18:14:11.185Z,96058.13
2022-09-03T18:16:43.352Z,96060.09
2022-09-03T18:19:19.419Z,96063.31
2022-09-03T18:22:07.802Z,96069.78
2022-09-03T18:25:01.967Z,96081.13
2022-09-03T18:27:52.497Z,96082.19
2022-09-03T18:30:37.854Z,96073.72
2022-09-03T18:33:23.451Z,96078.22
2022-09-03T18:36:08.208Z,96079.47
2022-09-03T18:38:55.075Z,96079.59
2022-09-03T18:42:03.443Z,96088.22
2022-09-03T18:45:20.241Z,96089.13
2022-09-03T18:48:20.766Z,96096.34
2022-09-03T18:51:15.529Z,96090.63
2022-09-03T18:54:08.874Z,96076.94
2022-09-03T18:57:01.483Z,96077.59
2022-09-03T19:00:19.115Z,96075.25
2022-09-03T19:03:15.648Z,96077.00
2022-09-03T19:06:14.265Z,96074.59
2022-09-03T19:09:07.284Z,96075.25
2022-09-03T19:12:00.068Z,96081.66
2022-09-03T19:14:53.375Z,96096.06
2022-09-03T19:17:48.765Z,96091.44
2022-09-03T19:20:43.685Z,96097.91
2022-09-03T19:23:28.863Z,96106.22
2022-09-03T19:26:19.542Z,96099.31
2022-09-03T19:29:10.671Z,96099.31
2022-09-03T19:32:03.551Z,96109.53
2022-09-03T19:35:10.631Z,96104.88
2022-09-03T19:38:00.071Z,96112.06
2022-09-03T19:40:59.539Z,96120.31
2022-09-03T19:43:55.004Z,96122.88
2022-09-03T19:46:52.755Z,96124.16
2022-09-03T19:49:48.760Z,96135.72
2022-09-03T19:52:43.179Z,96132.09
2022-09-03T19:55:31.549Z,96140.19
2022-09-03T19:58:41.493Z,96140.69
2022-09-03T20:01:24.585Z,96136.00
2022-09-03T20:04:11.285Z,96140.50
2022-09-03T20:06:57.584Z,96143.34
2022-09-03T20:09:48.438Z,96143.34
2022-09-03T20:12:21.020Z,96146.72
2022-09-03T20:14:48.646Z,96144.66
2022-09-03T20:17:27.968Z,96151.25
2022-09-03T20:20:16.621Z,96154.69
2022-09-03T20:22:51.852Z,96155.63
2022-09-03T20:25:36.111Z,96167.91
2022-09-03T20:28:15.578Z,96177.66
2022-09-03T20:30:48.866Z,96179.47
2022-09-03T20:33:32.083Z,96174.47
2022-09-03T20:36:14.893Z,96191.34
2022-09-03T20:39:11.022Z,96190.28
2022-09-03T20:41:50.143Z,96205.22
2022-09-03T20:44:33.197Z,96198.44
2022-09-03T20:47:16.013Z,96197.25
2022-09-03T20:49:53.981Z,96190.38
2022-09-03T20:52:34.234Z,96195.09
2022-09-03T20:55:08.846Z,96191.31
2022-09-03T20:57:45.669Z,96191.69
2022-09-03T21:00:15.722Z,96197.47
2022-09-03T21:03:03.623Z,96192.44
2022-09-03T21:05:35.583Z,96197.56
2022-09-03T21:08:13.195Z,96190.28
2022-09-03T21:10:49.011Z,96195.19
2022-09-03T21:13:32.685Z,96192.09
2022-09-03T21:16:25.287Z,96192.09
2022-09-03T21:19:00.472Z,96191.88
2022-09-03T21:21:40.328Z,96197.31
2022-09-03T21:24:15.547Z,96187.63
2022-09-03T21:26:50.456Z,96197.31
2022-09-03T21:29:24.205Z,96199.00
2022-09-03T21:31:57.392Z,96201.09
2022-09-03T21:34:30.835Z,96197.41
2022-09-03T21:37:00.756Z,96197.78
2022-09-03T21:39:33.386Z,96198.66
2022-09-03T21:42:06.445Z,96200.31
2022-09-03T21:44:51.775Z,96205.22
2022-09-03T21:47:21.231Z,96202.41
2022-09-03T21:50:03.588Z,96216.44
2022-09-03T21:52:40.580Z,96208.00
2022-09-03T21:55:32.173Z,96204.88
2022-09-03T21:58:11.243Z,96218.06
2022-09-03T22:00:39.306Z,96217.66
2022-09-03T22:03:09.628Z,96210.44
2022-09-03T22:05:49.660Z,96227.41
2022-09-03T22:08:25.226Z,96223.66
2022-09-03T22:11:01.533Z,96230.91
2022-09-03T22:13:32.529Z,96228.44
2022-09-03T22:16:13.641Z,96231.53
2022-09-03T22:18:41.347Z,96228.63
2022-09-03T22:21:19.714Z,96227.41
2022-09-03T22:24:07.206Z,96227.59
2022-09-03T22:26:45.547Z,96225.75
2022-09-03T22:29:20.344Z,96222.22
2022-09-03T22:31:58.350Z,96225.06
2022-09-03T22:34:46.889Z,96225.94
2022-09-03T22:37:25.143Z,96224.66
2022-09-03T22:40:03.910Z,96234.13
2022-09-03T22:42:47.676Z,96223.63
2022-09-03T22:45:40.543Z,96225.84
2022-09-03T22:48:22.852Z,96216.97
2022-09-03T22:50:57.530Z,96217.63
2022-09-03T22:53:42.663Z,96223.38
2022-09-03T22:56:12.697Z,96211.19
2022-09-03T22:58:47.516Z,96226.63
2022-09-03T23:01:19.102Z,96222.09
2022-09-03T23:03:54.402Z,96227.84
2022-09-03T23:06:26.949Z,96227.84
2022-09-03T23:09:01.292Z,96224.53
2022-09-03T23:11:34.579Z,96222.44
2022-09-03T23:14:06.222Z,96222.97
2022-09-03T23:16:39.392Z,96223.00
2022-09-03T23:21:57.728Z,96225.84
2022-09-03T23:24:29.721Z,96227.47
2022-09-03T23:27:01.238Z,96219.25
2022-09-03T23:29:36.577Z,96222.38
2022-09-03T23:32:05.209Z,96231.53
2022-09-03T23:34:33.372Z,96234.84
2022-09-03T23:37:35.320Z,96237.81
2022-09-03T23:40:21.025Z,96238.75
2022-09-03T23:43:05.507Z,96233.88
2022-09-03T23:45:44.116Z,96244.56
2022-09-03T23:48:23.798Z,96244.16
2022-09-03T23:51:03.877Z,96243.56
2022-09-03T23:53:47.312Z,96241.28
2022-09-03T23:56:35.760Z,96243.25
2022-09-03T23:59:13.420Z,96245.75
